Time;durP1;ratioP1;P1;durP2;ratioP2;P2;SDS_P1;SDS_P2;PMS_P1;PMS_P2;Temp;Humidity;BMP_temperature;BMP_pressure;BME280_temperature;BME280_humidity;BME280_pressure;Samples;Min_cycle;Max_cycle;Signal;HPM_P1;HPM_P2
2021/03/12 00:00:17;;;;;;;4.10;1.17;;;;;;;;;;5066351;28;20409;-86
2021/03/12 00:02:43;;;;;;;2.13;0.85;;;;;;;;;;5076044;28;20404;-87
2021/03/12 00:05:09;;;;;;;2.33;1.00;;;;;;;;;;5089300;28;20462;-87
2021/03/12 00:07:35;;;;;;;5.25;1.00;;;;;;;;;;5084835;28;20469;-86
2021/03/12 00:10:01;;;;;;;3.17;0.82;;;;;;;;;;5100463;28;20421;-87
2021/03/12 00:12:27;;;;;;;2.00;0.80;;;;;;;;;;5102513;28;20832;-87
2021/03/12 00:14:53;;;;;;;2.78;0.82;;;;;;;;;;5103484;28;20384;-87
2021/03/12 00:17:19;;;;;;;5.07;1.67;;;;;;;;;;5092083;28;20416;-87
2021/03/12 00:19:45;;;;;;;4.20;1.20;;;;;;;;;;5086936;28;20444;-87
2021/03/12 00:22:12;;;;;;;2.30;0.93;;;;;;;;;;5063011;28;20430;-87
2021/03/12 00:24:38;;;;;;;4.20;1.55;;;;;;;;;;5056585;28;20820;-87
2021/03/12 00:27:04;;;;;;;5.80;1.50;;;;;;;;;;5073308;28;20394;-88
2021/03/12 00:29:30;;;;;;;3.03;0.40;;;;;;;;;;5084182;28;20567;-88
2021/03/12 00:31:56;;;;;;;2.28;0.38;;;;;;;;;;5076212;28;20439;-88
2021/03/12 00:34:22;;;;;;;0.47;0.10;;;;;;;;;;5091632;28;20733;-87
2021/03/12 00:36:48;;;;;;;1.33;0.30;;;;;;;;;;5081815;28;20399;-86
2021/03/12 00:39:13;;;;;;;0.63;0.30;;;;;;;;;;5056250;28;20399;-86
2021/03/12 00:41:39;;;;;;;1.70;0.30;;;;;;;;;;5073300;28;20886;-86
2021/03/12 00:44:05;;;;;;;2.45;0.47;;;;;;;;;;5073051;28;20874;-86
2021/03/12 00:46:31;;;;;;;0.77;0.30;;;;;;;;;;5089854;28;20438;-88
2021/03/12 00:48:57;;;;;;;0.80;0.45;;;;;;;;;;5093241;28;20400;-87
2021/03/12 00:51:23;;;;;;;0.43;0.10;;;;;;;;;;5091218;28;20404;-87
2021/03/12 00:53:49;;;;;;;2.70;0.70;;;;;;;;;;5064731;28;20422;-87
2021/03/12 00:56:15;;;;;;;1.42;0.63;;;;;;;;;;5090286;28;20400;-87
2021/03/12 00:58:41;;;;;;;1.90;0.50;;;;;;;;;;5056182;28;20469;-87
2021/03/12 01:01:07;;;;;;;0.90;0.60;;;;;;;;;;5072509;28;20380;-87
2021/03/12 01:03:33;;;;;;;2.50;1.75;;;;;;;;;;5056157;28;20416;-87
2021/03/12 01:05:59;;;;;;;1.95;0.90;;;;;;;;;;5072072;28;20412;-86
2021/03/12 01:08:25;;;;;;;1.27;1.20;;;;;;;;;;5073214;28;20471;-86
2021/03/12 01:10:51;;;;;;;2.72;2.25;;;;;;;;;;5080815;28;20808;-86
2021/03/12 01:13:17;;;;;;;1.37;1.07;;;;;;;;;;5091855;28;21134;-86
2021/03/12 01:15:43;;;;;;;0.47;0.47;;;;;;;;;;5112761;27;20404;-86
2021/03/12 01:18:10;;;;;;;2.83;0.65;;;;;;;;;;5067641;28;20408;-86
2021/03/12 01:20:37;;;;;;;2.15;0.90;;;;;;;;;;5039060;28;20411;-87
2021/03/12 01:23:03;;;;;;;2.80;1.00;;;;;;;;;;5033576;28;20502;-86
2021/03/12 01:25:31;;;;;;;2.50;0.57;;;;;;;;;;5051817;28;20390;-87
2021/03/12 01:27:57;;;;;;;2.80;0.80;;;;;;;;;;5052676;28;20865;-87
2021/03/12 01:30:26;;;;;;;3.70;0.73;;;;;;;;;;5085537;28;20418;-86
2021/03/12 01:32:52;;;;;;;3.95;1.10;;;;;;;;;;5071778;28;20497;-87
2021/03/12 01:35:18;;;;;;;6.30;0.93;;;;;;;;;;5048536;28;20878;-87
2021/03/12 01:37:44;;;;;;;4.03;1.27;;;;;;;;;;5066874;28;20430;-86
2021/03/12 01:40:12;;;;;;;5.47;1.83;;;;;;;;;;5079545;28;20427;-87
2021/03/12 01:42:38;;;;;;;5.03;2.07;;;;;;;;;;5085252;28;20469;-87
2021/03/12 01:45:10;;;;;;;5.63;1.65;;;;;;;;;;5085054;28;20385;-87
2021/03/12 01:47:36;;;;;;;3.75;1.33;;;;;;;;;;5080857;28;20898;-87
2021/03/12 01:50:02;;;;;;;3.50;1.42;;;;;;;;;;5067545;28;20508;-87
2021/03/12 01:52:28;;;;;;;5.82;1.38;;;;;;;;;;5067734;28;20493;-86
2021/03/12 01:54:54;;;;;;;6.77;1.40;;;;;;;;;;5085064;28;20799;-86
2021/03/12 01:57:20;;;;;;;3.92;1.10;;;;;;;;;;5084090;28;20446;-87
2021/03/12 01:59:45;;;;;;;6.30;0.90;;;;;;;;;;5058381;28;20474;-86
2021/03/12 02:02:11;;;;;;;4.38;1.40;;;;;;;;;;5075721;28;20456;-86
2021/03/12 02:04:37;;;;;;;3.57;1.20;;;;;;;;;;5081414;28;20480;-87
2021/03/12 02:07:03;;;;;;;4.00;1.50;;;;;;;;;;5068246;28;20909;-87
2021/03/12 02:09:29;;;;;;;6.90;1.30;;;;;;;;;;5081349;28;20413;-86
2021/03/12 02:12:02;;;;;;;4.53;1.42;;;;;;;;;;5067776;28;20489;-86
2021/03/12 02:14:34;;;;;;;5.30;1.25;;;;;;;;;;5067734;28;20475;-87
2021/03/12 02:17:02;;;;;;;4.53;1.10;;;;;;;;;;5036490;28;20392;-87
2021/03/12 02:19:31;;;;;;;4.05;1.08;;;;;;;;;;5083288;28;20797;-87
2021/03/12 02:21:58;;;;;;;3.35;1.08;;;;;;;;;;5084370;28;20429;-86
2021/03/12 02:24:24;;;;;;;7.47;1.60;;;;;;;;;;5084486;28;20960;-86
2021/03/12 02:27:08;;;;;;;8.45;2.20;;;;;;;;;;5095571;28;20395;-86
2021/03/12 02:29:37;;;;;;;5.20;1.67;;;;;;;;;;5069226;28;20898;-86
2021/03/12 02:32:03;;;;;;;5.10;0.95;;;;;;;;;;5070406;28;20457;-86
2021/03/12 02:34:31;;;;;;;4.13;0.90;;;;;;;;;;5084714;28;20557;-86
2021/03/12 02:36:58;;;;;;;3.10;0.90;;;;;;;;;;5085247;28;20393;-86
2021/03/12 02:39:25;;;;;;;4.20;1.10;;;;;;;;;;5067308;28;20476;-86
2021/03/12 02:41:51;;;;;;;2.80;0.77;;;;;;;;;;5067119;28;20425;-87
2021/03/12 02:44:17;;;;;;;4.70;0.80;;;;;;;;;;5050834;28;20424;-86
2021/03/12 02:46:43;;;;;;;3.80;0.85;;;;;;;;;;5074970;28;20499;-87
2021/03/12 02:49:09;;;;;;;6.30;1.52;;;;;;;;;;5086908;28;20404;-86
2021/03/12 02:51:35;;;;;;;3.58;0.90;;;;;;;;;;5085939;28;20384;-86
2021/03/12 02:54:01;;;;;;;5.18;0.93;;;;;;;;;;5067074;28;20945;-87
2021/03/12 02:56:27;;;;;;;3.85;0.95;;;;;;;;;;5090707;28;20874;-87
2021/03/12 02:58:53;;;;;;;6.18;1.60;;;;;;;;;;5101617;28;21367;-87
2021/03/12 03:01:19;;;;;;;5.03;0.87;;;;;;;;;;5104187;28;20449;-87
2021/03/12 03:03:45;;;;;;;2.08;0.57;;;;;;;;;;5075820;28;20401;-87
2021/03/12 03:06:11;;;;;;;4.53;0.80;;;;;;;;;;5072154;28;20400;-87
2021/03/12 03:08:37;;;;;;;4.50;0.90;;;;;;;;;;5071900;28;20400;-86
2021/03/12 03:11:06;;;;;;;5.17;1.13;;;;;;;;;;5083484;28;20409;-86
2021/03/12 03:13:33;;;;;;;2.00;0.80;;;;;;;;;;5097278;28;20778;-87
2021/03/12 03:16:00;;;;;;;3.97;0.98;;;;;;;;;;5066056;28;20900;-87
2021/03/12 03:18:26;;;;;;;2.15;1.00;;;;;;;;;;5083465;28;20417;-86
2021/03/12 03:20:59;;;;;;;4.32;1.13;;;;;;;;;;5066502;28;20385;-86
2021/03/12 03:23:25;;;;;;;4.10;0.90;;;;;;;;;;5065657;28;20808;-86
2021/03/12 03:25:51;;;;;;;9.18;1.35;;;;;;;;;;5083598;28;20405;-86
2021/03/12 03:28:17;;;;;;;3.90;1.27;;;;;;;;;;5066502;28;20401;-87
2021/03/12 03:30:42;;;;;;;4.47;1.52;;;;;;;;;;5066648;28;20385;-87
2021/03/12 03:33:08;;;;;;;5.93;1.80;;;;;;;;;;5066830;28;20440;-87
2021/03/12 03:35:34;;;;;;;3.77;1.07;;;;;;;;;;5083070;28;20637;-87
2021/03/12 03:38:00;;;;;;;7.50;1.42;;;;;;;;;;5066892;28;20421;-86
2021/03/12 03:40:26;;;;;;;3.05;0.93;;;;;;;;;;5085805;28;20397;-86
2021/03/12 03:42:52;;;;;;;5.50;1.25;;;;;;;;;;5067625;28;20803;-87
2021/03/12 03:45:19;;;;;;;5.70;1.25;;;;;;;;;;5095766;28;20410;-87
2021/03/12 03:47:45;;;;;;;7.07;1.67;;;;;;;;;;5079966;28;20401;-87
2021/03/12 03:50:11;;;;;;;6.10;1.83;;;;;;;;;;5083525;28;20396;-87
2021/03/12 03:52:38;;;;;;;6.20;1.40;;;;;;;;;;5066377;28;20772;-87
2021/03/12 03:55:04;;;;;;;8.15;1.98;;;;;;;;;;5095478;28;20421;-86
2021/03/12 03:57:30;;;;;;;6.03;1.70;;;;;;;;;;5085695;28;20412;-86
2021/03/12 03:59:56;;;;;;;8.10;1.38;;;;;;;;;;5078962;28;20392;-87
2021/03/12 04:02:22;;;;;;;4.82;1.55;;;;;;;;;;5107597;28;20421;-86
2021/03/12 04:04:48;;;;;;;8.43;1.38;;;;;;;;;;5088471;28;20414;-86
2021/03/12 04:07:15;;;;;;;8.23;1.73;;;;;;;;;;5070537;28;20812;-86
2021/03/12 04:09:41;;;;;;;6.13;2.37;;;;;;;;;;5086674;28;20943;-86
2021/03/12 04:12:07;;;;;;;7.60;1.95;;;;;;;;;;5086743;28;20413;-87
2021/03/12 04:14:33;;;;;;;8.77;2.00;;;;;;;;;;5086565;28;20416;-87
2021/03/12 04:16:59;;;;;;;9.63;2.05;;;;;;;;;;5071210;28;20395;-87
2021/03/12 04:19:25;;;;;;;7.72;2.00;;;;;;;;;;5086977;28;20397;-86
2021/03/12 04:21:51;;;;;;;11.70;2.15;;;;;;;;;;5069893;28;20452;-87
2021/03/12 04:24:17;;;;;;;8.13;1.70;;;;;;;;;;5069389;28;20903;-86
2021/03/12 04:26:43;;;;;;;8.70;1.65;;;;;;;;;;5070035;28;20393;-87
2021/03/12 04:29:09;;;;;;;8.60;3.53;;;;;;;;;;5069669;28;20390;-86
2021/03/12 04:31:35;;;;;;;18.90;7.85;;;;;;;;;;5086218;28;20820;-87
2021/03/12 04:34:04;;;;;;;12.03;5.37;;;;;;;;;;5078420;28;20796;-87
2021/03/12 04:36:30;;;;;;;7.57;1.88;;;;;;;;;;5070562;28;20394;-87
2021/03/12 04:38:56;;;;;;;8.23;2.80;;;;;;;;;;5102690;28;20713;-86
2021/03/12 04:41:21;;;;;;;17.25;5.47;;;;;;;;;;5086041;28;20405;-86
2021/03/12 04:43:47;;;;;;;14.50;4.63;;;;;;;;;;5086261;28;20412;-86
2021/03/12 04:46:13;;;;;;;16.60;4.57;;;;;;;;;;5071327;28;20487;-86
2021/03/12 04:48:40;;;;;;;13.35;3.05;;;;;;;;;;5089081;28;20388;-86
2021/03/12 04:51:07;;;;;;;8.07;2.47;;;;;;;;;;5069142;28;20397;-86
2021/03/12 04:53:33;;;;;;;13.27;3.47;;;;;;;;;;5085840;28;20463;-87
2021/03/12 04:55:59;;;;;;;12.05;2.65;;;;;;;;;;5068980;28;20440;-86
2021/03/12 04:58:25;;;;;;;5.30;1.20;;;;;;;;;;5069089;28;20409;-87
2021/03/12 05:00:51;;;;;;;7.63;2.08;;;;;;;;;;5069308;28;20397;-86
2021/03/12 05:03:17;;;;;;;6.70;1.80;;;;;;;;;;5069171;28;20464;-86
2021/03/12 05:05:43;;;;;;;7.10;2.00;;;;;;;;;;5074132;28;20500;-86
2021/03/12 05:08:09;;;;;;;8.77;2.75;;;;;;;;;;5094280;28;20454;-86
2021/03/12 05:10:35;;;;;;;18.85;4.53;;;;;;;;;;5074470;28;20404;-86
2021/03/12 05:13:02;;;;;;;14.00;4.63;;;;;;;;;;5089492;28;20446;-86
2021/03/12 05:15:28;;;;;;;10.82;3.38;;;;;;;;;;5075982;28;20401;-87
2021/03/12 05:17:54;;;;;;;6.85;1.88;;;;;;;;;;5085722;28;20949;-86
2021/03/12 05:20:20;;;;;;;4.82;1.50;;;;;;;;;;5085697;28;20377;-87
2021/03/12 05:22:46;;;;;;;7.38;2.50;;;;;;;;;;5066775;28;20458;-87
2021/03/12 05:25:12;;;;;;;5.10;1.15;;;;;;;;;;5090970;28;20415;-87
2021/03/12 05:27:39;;;;;;;4.22;1.42;;;;;;;;;;5102282;28;20398;-86
2021/03/12 05:30:05;;;;;;;7.60;2.03;;;;;;;;;;5091055;28;20439;-85
2021/03/12 05:32:31;;;;;;;5.70;1.40;;;;;;;;;;5099865;28;20481;-86
2021/03/12 05:35:00;;;;;;;8.50;1.75;;;;;;;;;;5074941;28;20413;-85
2021/03/12 05:37:26;;;;;;;6.35;1.30;;;;;;;;;;5091103;28;20402;-86
2021/03/12 05:39:52;;;;;;;11.63;2.70;;;;;;;;;;5049429;28;20400;-85
2021/03/12 05:42:18;;;;;;;6.20;1.80;;;;;;;;;;5076900;28;20763;-86
2021/03/12 05:47:33;;;;;;;7.38;2.35;;;;;;;;;;5077404;28;20417;-85
2021/03/12 05:49:59;;;;;;;7.87;2.03;;;;;;;;;;5088465;28;20429;-85
2021/03/12 05:52:25;;;;;;;5.00;2.00;;;;;;;;;;5080250;28;20425;-85
2021/03/12 05:54:51;;;;;;;7.18;1.83;;;;;;;;;;5060258;28;20936;-85
2021/03/12 05:57:17;;;;;;;4.35;1.45;;;;;;;;;;5099353;28;20898;-85
2021/03/12 05:59:43;;;;;;;7.38;1.40;;;;;;;;;;5072138;28;20756;-85
2021/03/12 06:02:11;;;;;;;5.37;1.63;;;;;;;;;;5090075;28;20421;-86
2021/03/12 06:04:49;;;;;;;7.60;2.17;;;;;;;;;;5088501;28;20404;-86
2021/03/12 06:07:28;;;;;;;4.53;1.23;;;;;;;;;;5108401;28;20378;-86
2021/03/12 06:09:54;;;;;;;6.07;1.53;;;;;;;;;;5092171;28;20937;-86
2021/03/12 06:12:20;;;;;;;4.28;0.90;;;;;;;;;;5108265;28;20450;-86
2021/03/12 06:14:59;;;;;;;5.20;0.82;;;;;;;;;;5085992;28;20414;-87
2021/03/12 06:17:47;;;;;;;4.13;1.40;;;;;;;;;;5054094;28;20758;-87
2021/03/12 06:20:19;;;;;;;3.35;0.80;;;;;;;;;;5056439;28;20412;-86
2021/03/12 06:22:55;;;;;;;3.00;0.95;;;;;;;;;;5085992;28;20414;-87
2021/03/12 06:25:25;;;;;;;3.42;0.93;;;;;;;;;;5072844;28;20457;-87
2021/03/12 06:27:54;;;;;;;4.10;1.30;;;;;;;;;;5072759;28;20400;-88
2021/03/12 06:30:21;;;;;;;4.88;0.85;;;;;;;;;;5084374;28;20455;-88
2021/03/12 06:32:50;;;;;;;4.88;1.05;;;;;;;;;;5082345;28;20475;-88
2021/03/12 06:35:16;;;;;;;4.07;1.70;;;;;;;;;;5103586;28;20425;-87
2021/03/12 06:37:45;;;;;;;5.97;1.50;;;;;;;;;;5087072;28;20398;-89
2021/03/12 06:40:24;;;;;;;4.97;1.30;;;;;;;;;;5088266;28;20449;-87
2021/03/12 06:43:09;;;;;;;4.53;1.50;;;;;;;;;;5087424;28;20482;-88
2021/03/12 06:45:41;;;;;;;6.25;2.00;;;;;;;;;;5092915;28;20887;-86
2021/03/12 06:48:14;;;;;;;6.03;2.42;;;;;;;;;;5084287;28;20422;-88
2021/03/12 06:50:53;;;;;;;3.17;1.30;;;;;;;;;;5064115;28;20889;-87
2021/03/12 06:53:19;;;;;;;2.65;1.00;;;;;;;;;;5053925;28;20422;-88
2021/03/12 06:55:45;;;;;;;6.55;1.65;;;;;;;;;;5075710;28;20394;-87
2021/03/12 06:58:11;;;;;;;5.63;1.15;;;;;;;;;;5107469;27;20439;-86
2021/03/12 07:00:37;;;;;;;4.68;1.60;;;;;;;;;;5087465;28;20419;-88
2021/03/12 07:03:16;;;;;;;4.88;1.17;;;;;;;;;;5070307;28;20450;-87
2021/03/12 07:05:55;;;;;;;5.15;1.52;;;;;;;;;;5087318;28;20395;-86
2021/03/12 07:08:31;;;;;;;7.40;1.58;;;;;;;;;;5100549;28;20401;-86
2021/03/12 07:10:57;;;;;;;8.77;2.35;;;;;;;;;;5089735;28;20423;-87
2021/03/12 07:13:52;;;;;;;5.63;1.70;;;;;;;;;;5090435;28;20766;-85
2021/03/12 07:16:18;;;;;;;5.65;1.50;;;;;;;;;;5072601;28;20381;-87
2021/03/12 07:18:44;;;;;;;5.30;1.70;;;;;;;;;;5085708;28;20413;-87
2021/03/12 07:21:14;;;;;;;4.85;1.50;;;;;;;;;;5086482;28;20467;-88
2021/03/12 07:23:59;;;;;;;4.32;2.03;;;;;;;;;;5087476;28;20408;-87
2021/03/12 07:26:49;;;;;;;6.97;2.20;;;;;;;;;;5073518;28;20382;-87
2021/03/12 07:29:15;;;;;;;5.85;2.60;;;;;;;;;;5076984;28;20395;-87
2021/03/12 07:31:42;;;;;;;4.47;1.40;;;;;;;;;;5086117;28;20537;-87
2021/03/12 07:34:12;;;;;;;3.43;1.20;;;;;;;;;;5088559;28;20401;-85
2021/03/12 07:36:43;;;;;;;4.72;1.02;;;;;;;;;;5061375;28;20457;-84
2021/03/12 07:39:09;;;;;;;9.32;2.60;;;;;;;;;;5059355;28;20539;-86
2021/03/12 07:41:35;;;;;;;7.55;2.10;;;;;;;;;;5083619;28;20489;-85
2021/03/12 07:44:01;;;;;;;6.33;2.13;;;;;;;;;;5090836;28;20403;-85
2021/03/12 07:46:27;;;;;;;7.07;3.00;;;;;;;;;;5106281;28;20387;-86
2021/03/12 07:48:53;;;;;;;7.00;2.45;;;;;;;;;;5093241;28;20426;-85
2021/03/12 07:51:22;;;;;;;9.20;3.17;;;;;;;;;;5074921;28;20905;-86
2021/03/12 07:53:48;;;;;;;7.72;2.60;;;;;;;;;;5058924;28;20423;-87
2021/03/12 07:56:15;;;;;;;5.55;1.92;;;;;;;;;;5075258;28;20388;-87
2021/03/12 07:58:48;;;;;;;4.28;1.38;;;;;;;;;;5091238;28;20403;-87
2021/03/12 08:01:14;;;;;;;4.45;1.75;;;;;;;;;;5087272;28;21851;-86
2021/03/12 08:03:40;;;;;;;7.60;1.90;;;;;;;;;;5091049;28;20380;-87
2021/03/12 08:06:27;;;;;;;6.05;1.90;;;;;;;;;;5090422;28;20431;-88
2021/03/12 08:08:56;;;;;;;3.30;1.40;;;;;;;;;;5073637;28;20388;-88
2021/03/12 08:11:27;;;;;;;6.07;2.40;;;;;;;;;;5090554;28;20498;-87
2021/03/12 08:14:13;;;;;;;5.97;1.45;;;;;;;;;;5074892;28;20438;-88
2021/03/12 08:17:00;;;;;;;6.57;2.00;;;;;;;;;;5073622;28;20433;-87
2021/03/12 08:19:29;;;;;;;4.38;1.88;;;;;;;;;;5094514;28;20382;-85
2021/03/12 08:21:55;;;;;;;7.35;2.55;;;;;;;;;;5087861;28;20445;-86
2021/03/12 08:24:40;;;;;;;8.70;2.00;;;;;;;;;;5069190;28;20929;-85
2021/03/12 08:27:06;;;;;;;5.07;2.10;;;;;;;;;;5081818;28;20413;-85
2021/03/12 08:29:33;;;;;;;5.43;1.88;;;;;;;;;;5056594;28;20426;-85
2021/03/12 08:31:59;;;;;;;4.57;1.27;;;;;;;;;;5073504;28;20860;-86
2021/03/12 08:34:38;;;;;;;5.13;1.77;;;;;;;;;;5082093;28;20431;-85
2021/03/12 08:37:25;;;;;;;5.10;1.90;;;;;;;;;;5079146;28;20488;-85
2021/03/12 08:40:11;;;;;;;6.57;1.88;;;;;;;;;;5073566;28;20384;-88
2021/03/12 08:42:56;;;;;;;6.57;2.33;;;;;;;;;;5048386;28;20383;-86
2021/03/12 08:45:41;;;;;;;9.00;2.15;;;;;;;;;;5089680;28;20924;-86
2021/03/12 08:48:12;;;;;;;7.55;2.80;;;;;;;;;;5089767;28;20384;-86
2021/03/12 08:50:41;;;;;;;7.57;2.08;;;;;;;;;;5073488;28;20400;-87
2021/03/12 08:53:17;;;;;;;3.30;1.58;;;;;;;;;;5057775;28;20484;-87
2021/03/12 08:55:46;;;;;;;6.30;2.17;;;;;;;;;;5075235;28;20879;-87
2021/03/12 08:58:13;;;;;;;5.45;2.20;;;;;;;;;;5056701;28;20431;-87
2021/03/12 09:00:39;;;;;;;6.95;2.65;;;;;;;;;;5089531;28;20435;-87
2021/03/12 09:03:17;;;;;;;5.20;2.10;;;;;;;;;;5088876;28;20415;-87
2021/03/12 09:05:43;;;;;;;5.22;1.80;;;;;;;;;;5075196;28;20758;-87
2021/03/12 09:08:10;;;;;;;6.53;2.58;;;;;;;;;;5078469;28;20420;-87
2021/03/12 09:10:36;;;;;;;4.40;2.67;;;;;;;;;;5072827;28;20400;-87
2021/03/12 09:13:02;;;;;;;5.63;2.58;;;;;;;;;;5072000;28;20458;-87
2021/03/12 09:15:49;;;;;;;7.07;2.08;;;;;;;;;;5072691;28;20392;-87
2021/03/12 09:18:18;;;;;;;3.08;1.50;;;;;;;;;;5071996;28;20511;-87
2021/03/12 09:20:47;;;;;;;4.40;2.13;;;;;;;;;;5088990;28;20380;-87
2021/03/12 09:23:19;;;;;;;5.90;2.20;;;;;;;;;;5073769;28;20480;-87
2021/03/12 09:25:45;;;;;;;5.65;2.28;;;;;;;;;;5103197;28;20388;-88
2021/03/12 09:28:17;;;;;;;5.22;1.67;;;;;;;;;;5068614;28;20484;-87
2021/03/12 09:30:47;;;;;;;6.90;2.85;;;;;;;;;;5085700;28;20930;-87
2021/03/12 09:33:32;;;;;;;4.68;2.10;;;;;;;;;;5085872;28;20421;-87
2021/03/12 09:35:58;;;;;;;5.88;1.85;;;;;;;;;;5082373;28;20411;-88
2021/03/12 09:38:28;;;;;;;4.97;1.77;;;;;;;;;;5089100;28;20403;-87
2021/03/12 09:40:54;;;;;;;5.60;2.10;;;;;;;;;;5061399;28;20435;-86
2021/03/12 09:43:20;;;;;;;5.03;2.20;;;;;;;;;;5082248;28;20420;-86
2021/03/12 09:45:52;;;;;;;4.72;1.85;;;;;;;;;;5068970;28;20405;-88
2021/03/12 09:48:18;;;;;;;6.13;2.30;;;;;;;;;;5073521;28;20410;-86
2021/03/12 09:50:44;;;;;;;3.35;1.75;;;;;;;;;;5068062;28;20475;-86
2021/03/12 09:53:10;;;;;;;7.43;2.13;;;;;;;;;;5096482;27;20494;-86
2021/03/12 09:55:37;;;;;;;5.15;1.83;;;;;;;;;;5055051;28;20422;-86
2021/03/12 09:58:04;;;;;;;6.15;1.98;;;;;;;;;;5054618;28;20440;-87
2021/03/12 10:00:30;;;;;;;4.95;2.40;;;;;;;;;;5054902;28;20395;-87
2021/03/12 10:02:56;;;;;;;6.53;1.42;;;;;;;;;;5068806;28;20540;-87
2021/03/12 10:05:23;;;;;;;7.97;2.75;;;;;;;;;;5056341;28;20812;-86
2021/03/12 10:07:49;;;;;;;5.25;1.40;;;;;;;;;;5105190;27;20455;-87
2021/03/12 10:10:18;;;;;;;5.18;2.67;;;;;;;;;;5074753;28;20421;-87
2021/03/12 10:12:44;;;;;;;9.13;2.00;;;;;;;;;;5074268;28;20387;-87
2021/03/12 10:15:19;;;;;;;6.20;2.00;;;;;;;;;;5066034;28;20525;-86
2021/03/12 10:17:45;;;;;;;6.50;2.22;;;;;;;;;;5067720;28;20430;-86
2021/03/12 10:20:11;;;;;;;7.97;2.22;;;;;;;;;;5067181;28;20397;-87
2021/03/12 10:22:37;;;;;;;4.27;1.50;;;;;;;;;;5084368;28;20421;-87
2021/03/12 10:25:23;;;;;;;3.47;1.55;;;;;;;;;;5093527;28;20416;-89
2021/03/12 10:27:53;;;;;;;5.38;1.50;;;;;;;;;;5083064;28;20404;-88
2021/03/12 10:30:20;;;;;;;5.60;1.50;;;;;;;;;;5075011;28;20465;-87
2021/03/12 10:32:56;;;;;;;4.03;1.58;;;;;;;;;;5053835;28;20482;-88
2021/03/12 10:35:23;;;;;;;8.30;4.40;;;;;;;;;;5050215;28;20397;-86
2021/03/12 10:37:49;;;;;;;6.45;3.33;;;;;;;;;;5084242;28;20872;-86
2021/03/12 10:40:17;;;;;;;6.60;1.73;;;;;;;;;;5084185;28;20389;-86
2021/03/12 10:42:43;;;;;;;7.55;3.60;;;;;;;;;;5067168;28;20405;-87
2021/03/12 10:45:22;;;;;;;7.25;3.45;;;;;;;;;;5097961;28;20407;-86
2021/03/12 10:47:57;;;;;;;7.60;2.92;;;;;;;;;;5083453;28;20494;-87
2021/03/12 10:50:23;;;;;;;6.40;2.60;;;;;;;;;;5080515;28;20412;-87
2021/03/12 10:52:49;;;;;;;5.68;2.63;;;;;;;;;;5050489;28;20405;-87
2021/03/12 10:55:15;;;;;;;5.43;2.10;;;;;;;;;;5066959;28;20409;-86
2021/03/12 10:57:44;;;;;;;7.97;2.40;;;;;;;;;;5066915;28;20748;-86
2021/03/12 11:00:14;;;;;;;7.55;2.60;;;;;;;;;;5068760;28;20401;-86
2021/03/12 11:02:41;;;;;;;5.83;1.80;;;;;;;;;;5050139;28;20947;-86
2021/03/12 11:05:10;;;;;;;7.25;1.98;;;;;;;;;;5077216;28;20403;-86
2021/03/12 11:07:36;;;;;;;5.93;2.13;;;;;;;;;;5084552;28;20540;-87
2021/03/12 11:10:01;;;;;;;7.82;2.13;;;;;;;;;;5053374;28;20425;-87
2021/03/12 11:12:38;;;;;;;7.38;1.95;;;;;;;;;;5069984;28;20856;-85
2021/03/12 11:15:05;;;;;;;6.15;1.88;;;;;;;;;;5075520;28;20411;-87
2021/03/12 11:17:31;;;;;;;7.77;2.00;;;;;;;;;;5070488;28;20809;-86
2021/03/12 11:19:57;;;;;;;7.35;2.15;;;;;;;;;;5076234;28;20720;-88
2021/03/12 11:22:23;;;;;;;5.32;1.75;;;;;;;;;;5074540;28;20480;-88
2021/03/12 11:24:50;;;;;;;7.78;2.45;;;;;;;;;;5084797;28;20428;-87
2021/03/12 11:27:16;;;;;;;8.55;2.78;;;;;;;;;;5055985;28;20486;-87
2021/03/12 11:29:43;;;;;;;7.60;2.90;;;;;;;;;;5080969;28;20400;-87
2021/03/12 11:32:12;;;;;;;8.57;3.03;;;;;;;;;;5071420;28;20384;-88
2021/03/12 11:34:38;;;;;;;5.90;1.90;;;;;;;;;;5072813;28;21108;-87
2021/03/12 11:37:24;;;;;;;16.75;5.93;;;;;;;;;;5083608;28;20397;-91
2021/03/12 11:39:50;;;;;;;12.05;4.60;;;;;;;;;;5070135;28;20435;-88
2021/03/12 11:42:22;;;;;;;20.05;6.72;;;;;;;;;;5070958;28;20446;-88
2021/03/12 11:44:48;;;;;;;14.00;5.77;;;;;;;;;;5061414;28;20446;-87
2021/03/12 11:47:14;;;;;;;11.82;4.18;;;;;;;;;;5091241;28;20391;-88
2021/03/12 11:49:44;;;;;;;13.35;4.95;;;;;;;;;;5052991;28;20403;-88
2021/03/12 11:52:10;;;;;;;17.60;5.78;;;;;;;;;;5071209;28;20395;-88
2021/03/12 11:54:36;;;;;;;19.17;6.23;;;;;;;;;;5049353;28;20444;-88
2021/03/12 11:57:02;;;;;;;14.37;5.87;;;;;;;;;;5083828;28;20459;-88
2021/03/12 11:59:28;;;;;;;12.60;5.78;;;;;;;;;;5066560;28;20420;-88
2021/03/12 12:01:57;;;;;;;16.02;6.65;;;;;;;;;;5067270;28;20433;-86
2021/03/12 12:04:22;;;;;;;11.68;4.75;;;;;;;;;;5083896;28;20768;-89
2021/03/12 12:06:48;;;;;;;10.75;4.03;;;;;;;;;;5101155;28;20403;-86
2021/03/12 12:09:14;;;;;;;10.45;4.15;;;;;;;;;;5077009;28;20402;-87
2021/03/12 12:11:40;;;;;;;10.95;3.75;;;;;;;;;;5051778;28;20799;-87
2021/03/12 12:14:09;;;;;;;7.22;3.22;;;;;;;;;;5048402;28;20412;-87
2021/03/12 12:16:35;;;;;;;6.35;3.28;;;;;;;;;;5066984;28;20889;-87
2021/03/12 12:19:05;;;;;;;10.18;3.75;;;;;;;;;;5104219;27;20422;-88
2021/03/12 12:21:31;;;;;;;6.22;2.22;;;;;;;;;;5098350;28;20487;-88
2021/03/12 12:23:57;;;;;;;10.10;3.63;;;;;;;;;;5059113;28;20502;-87
2021/03/12 12:26:23;;;;;;;8.77;2.77;;;;;;;;;;5085857;28;20478;-89
2021/03/12 12:28:49;;;;;;;4.43;1.97;;;;;;;;;;5064762;28;20494;-87
2021/03/12 12:31:15;;;;;;;7.13;2.27;;;;;;;;;;5084908;28;20394;-87
2021/03/12 12:33:44;;;;;;;7.83;1.80;;;;;;;;;;5063098;28;20489;-86
2021/03/12 12:36:10;;;;;;;4.45;2.05;;;;;;;;;;5062825;28;20447;-89
2021/03/12 12:38:36;;;;;;;5.65;1.92;;;;;;;;;;5074518;28;20795;-86
2021/03/12 12:41:02;;;;;;;3.72;1.88;;;;;;;;;;5068700;28;20497;-88
2021/03/12 12:43:27;;;;;;;6.63;2.30;;;;;;;;;;5061357;28;20423;-87
2021/03/12 12:45:54;;;;;;;7.23;1.97;;;;;;;;;;5092856;28;20530;-86
2021/03/12 12:48:19;;;;;;;6.10;2.20;;;;;;;;;;5089472;28;20406;-86
2021/03/12 12:50:45;;;;;;;8.57;2.17;;;;;;;;;;5106711;28;20397;-86
2021/03/12 12:53:14;;;;;;;5.67;1.70;;;;;;;;;;5092142;28;20425;-86
2021/03/12 12:55:41;;;;;;;5.73;2.00;;;;;;;;;;5074529;28;20446;-86
2021/03/12 12:58:07;;;;;;;5.78;2.10;;;;;;;;;;5061887;28;20506;-85
2021/03/12 13:00:34;;;;;;;4.28;1.40;;;;;;;;;;5076993;28;20927;-86
2021/03/12 13:02:59;;;;;;;5.00;2.08;;;;;;;;;;5086908;28;20457;-85
2021/03/12 13:05:25;;;;;;;7.38;1.80;;;;;;;;;;5091898;28;20422;-86
2021/03/12 13:07:51;;;;;;;7.10;1.83;;;;;;;;;;5090671;28;20407;-87
2021/03/12 13:10:18;;;;;;;3.78;1.70;;;;;;;;;;5108592;27;20921;-86
2021/03/12 13:12:43;;;;;;;7.40;2.00;;;;;;;;;;5079270;28;20431;-86
2021/03/12 13:15:10;;;;;;;7.80;2.50;;;;;;;;;;5084511;28;20429;-85
2021/03/12 13:17:36;;;;;;;4.47;1.38;;;;;;;;;;5097375;28;20407;-85
2021/03/12 13:20:02;;;;;;;6.25;1.55;;;;;;;;;;5088704;28;20421;-86
2021/03/12 13:22:30;;;;;;;4.27;1.70;;;;;;;;;;5078483;28;20506;-85
2021/03/12 13:24:56;;;;;;;5.50;1.70;;;;;;;;;;5074755;28;20508;-85
2021/03/12 13:27:22;;;;;;;8.03;2.20;;;;;;;;;;5104922;28;20880;-85
2021/03/12 13:29:48;;;;;;;6.07;1.50;;;;;;;;;;5085155;28;20410;-85
2021/03/12 13:32:14;;;;;;;5.87;1.70;;;;;;;;;;5065893;28;20467;-85
2021/03/12 13:34:40;;;;;;;6.53;1.60;;;;;;;;;;5066376;28;20396;-85
2021/03/12 13:37:06;;;;;;;7.38;1.40;;;;;;;;;;5063638;28;20417;-89
2021/03/12 13:39:32;;;;;;;4.43;1.08;;;;;;;;;;5061833;28;20411;-87
2021/03/12 13:42:01;;;;;;;6.03;1.42;;;;;;;;;;5072222;28;20396;-86
2021/03/12 13:44:27;;;;;;;3.30;1.20;;;;;;;;;;5093099;28;20490;-86
2021/03/12 13:46:53;;;;;;;4.80;1.20;;;;;;;;;;5092073;28;20412;-87
2021/03/12 13:49:18;;;;;;;3.58;1.30;;;;;;;;;;5055009;28;20882;-86
2021/03/12 13:51:45;;;;;;;4.35;1.40;;;;;;;;;;5062436;28;20388;-87
2021/03/12 13:54:10;;;;;;;3.35;1.15;;;;;;;;;;5063562;28;20396;-86
2021/03/12 13:56:36;;;;;;;4.80;1.42;;;;;;;;;;5088071;28;20407;-86
2021/03/12 13:59:02;;;;;;;3.25;1.30;;;;;;;;;;5086722;28;20528;-85
2021/03/12 14:01:28;;;;;;;5.03;1.25;;;;;;;;;;5099915;28;20828;-86
2021/03/12 14:03:54;;;;;;;2.97;0.85;;;;;;;;;;5054917;28;20423;-86
2021/03/12 14:06:20;;;;;;;5.40;1.40;;;;;;;;;;5088240;28;20396;-86
2021/03/12 14:08:46;;;;;;;4.63;1.37;;;;;;;;;;5055351;28;20411;-85
2021/03/12 14:11:12;;;;;;;2.70;1.30;;;;;;;;;;5072412;28;20411;-86
2021/03/12 14:13:38;;;;;;;4.03;1.57;;;;;;;;;;5073298;28;20420;-86
2021/03/12 14:16:04;;;;;;;3.25;1.25;;;;;;;;;;5054363;28;20403;-86
2021/03/12 14:18:30;;;;;;;3.75;1.38;;;;;;;;;;5088037;28;20380;-85
2021/03/12 14:20:56;;;;;;;2.80;1.30;;;;;;;;;;5071064;28;20446;-86
2021/03/12 14:23:22;;;;;;;3.95;1.50;;;;;;;;;;5072112;28;20426;-86
2021/03/12 14:25:48;;;;;;;5.18;1.42;;;;;;;;;;5093770;28;20476;-85
2021/03/12 14:28:14;;;;;;;3.17;1.43;;;;;;;;;;5091389;28;20481;-86
2021/03/12 14:30:40;;;;;;;3.47;1.13;;;;;;;;;;5056237;28;20430;-86
2021/03/12 14:33:07;;;;;;;4.80;1.20;;;;;;;;;;5070897;28;20402;-86
2021/03/12 14:35:33;;;;;;;5.15;1.25;;;;;;;;;;5060557;28;20410;-86
2021/03/12 14:38:00;;;;;;;4.13;1.30;;;;;;;;;;5086977;28;20419;-85
2021/03/12 14:40:26;;;;;;;4.75;1.88;;;;;;;;;;5087095;28;20534;-86
2021/03/12 14:42:52;;;;;;;3.10;1.48;;;;;;;;;;5087617;28;20510;-86
2021/03/12 14:45:18;;;;;;;3.60;1.33;;;;;;;;;;5070514;28;20403;-86
2021/03/12 14:47:44;;;;;;;5.97;1.30;;;;;;;;;;5088078;28;20751;-86
2021/03/12 14:50:10;;;;;;;5.93;1.37;;;;;;;;;;5093921;28;20453;-85